Huslia Airport
PAHL : now visible

Airfield :











YOU CAN JOIN US ON...

 
LOGIN :

Register | Disclaimer

   EN    FR    IT 

 









Legend :    VFR   Marginal VFR   IFR   Intensive IFR   Very Intensive IFR
Visi :
Ceiling :
>= 8 km
>= 3000ft
5 to 8 km
1000 to 3000 ft
1500m to 5 km
500 to 1000 ft
800 to 1500m
200 to 500 ft
< 800m
< 200 ft
Symbols :   Thunderstorms  Fog  Heavy snow  Heavy precipitations  Wind > 20 kt






- Airport Elevation : 220 ft
- IATA code : HLA


PAHL - Huslia

CURRENT METAR :
  • 252356Z AUTO 00000KT 10SM CLR M34/ A3019 RMK AO2 SLP237 T1344 11322 21417 58002 FZRANO

EXPIRED METARs :
  • 252256Z AUTO 00000KT 10SM CLR M32/M36 A3020 RMK AO2 SLP238 T13221361 FZRANO
  • 252204Z AUTO 00000KT 3SM BR CLR M35/ A3019 RMK AO2 FZRANO
  • 252156Z AUTO 00000KT 1 1/2SM BR CLR M35/ A3020 RMK AO2 SLP238 T1350 FZRANO
  • 252142Z AUTO 00000KT 1SM BR CLR M36/ A3019 RMK AO2 FZRANO
  • 252119Z AUTO 00000KT 1 3/4SM BR CLR M37/ A3019 RMK AO2 FZRANO

TAF N/A



MET'MAP, your aeronautical weather chart ! - Copyright ORBIFLY December 2007 - Disclaimer

ORBIFLY MET'MAP TEAM :

Programming & Development : Alexandra Zaïnal
Concept & original design : Baudouin d'Aumeries
Assistance for programming : Marc-Olivier Méhu
Technical & hardware support : Manuel Goepfert

Contact : metmap@orbifly.com




SOURCES & CREDITS :

   NOAA       Earth
Advisory